createdAt,value
2022-08-03T00:01:36.992Z,22.24
2022-08-03T00:04:41.015Z,22.27
2022-08-03T00:07:43.585Z,22.20
2022-08-03T00:10:46.969Z,22.23
2022-08-03T00:13:50.593Z,22.18
2022-08-03T00:16:53.173Z,22.26
2022-08-03T00:19:57.064Z,22.29
2022-08-03T00:22:59.674Z,22.19
2022-08-03T00:26:02.501Z,22.19
2022-08-03T00:29:05.114Z,22.20
2022-08-03T00:32:07.779Z,22.15
2022-08-03T00:35:29.975Z,22.14
2022-08-03T00:38:37.460Z,22.13
2022-08-03T00:41:40.069Z,22.22
2022-08-03T00:44:43.191Z,22.19
2022-08-03T00:47:46.021Z,22.09
2022-08-03T00:50:49.941Z,22.07
2022-08-03T00:53:56.599Z,22.13
2022-08-03T00:56:59.528Z,22.13
2022-08-03T01:00:03.110Z,22.05
2022-08-03T01:03:06.654Z,21.91
2022-08-03T01:06:16.670Z,21.92
2022-08-03T01:09:31.937Z,21.90
2022-08-03T01:12:39.204Z,21.83
2022-08-03T01:15:47.308Z,21.70
2022-08-03T01:18:56.372Z,21.70
2022-08-03T01:22:12.039Z,21.68
2022-08-03T01:25:24.419Z,21.64
2022-08-03T01:28:40.000Z,21.54
2022-08-03T01:32:58.291Z,21.53
2022-08-03T01:35:23.167Z,21.47
2022-08-03T01:38:29.732Z,21.44
2022-08-03T01:41:35.242Z,21.23
2022-08-03T01:44:41.462Z,21.31
2022-08-03T01:47:46.663Z,21.17
2022-08-03T01:50:50.573Z,21.08
2022-08-03T01:53:55.356Z,21.00
2022-08-03T01:57:00.004Z,20.99
2022-08-03T02:00:03.651Z,21.01
2022-08-03T02:03:09.279Z,21.04
2022-08-03T02:06:58.907Z,20.88
2022-08-03T02:09:39.573Z,20.90
2022-08-03T02:12:46.101Z,20.75
2022-08-03T02:15:50.305Z,20.83
2022-08-03T02:18:56.092Z,20.75
2022-08-03T02:22:01.112Z,20.73
2022-08-03T02:25:05.022Z,20.73
2022-08-03T02:28:11.619Z,20.63
2022-08-03T02:31:19.178Z,20.60
2022-08-03T02:34:26.655Z,20.63
2022-08-03T02:37:35.042Z,20.61
2022-08-03T02:40:39.620Z,20.54
2022-08-03T02:44:06.284Z,20.52
2022-08-03T02:47:12.478Z,20.45
2022-08-03T02:50:18.163Z,20.52
2022-08-03T02:53:22.325Z,20.44
2022-08-03T02:56:26.582Z,20.42
2022-08-03T02:59:31.257Z,20.43
2022-08-03T03:02:34.904Z,20.41
2022-08-03T03:05:55.855Z,20.36
2022-08-03T03:09:00.785Z,20.48
2022-08-03T03:12:04.332Z,20.39
2022-08-03T03:15:07.712Z,20.37
2022-08-03T03:18:11.560Z,20.29
2022-08-03T03:21:18.909Z,20.30
2022-08-03T03:24:22.393Z,20.28
2022-08-03T03:27:25.409Z,20.29
2022-08-03T03:30:30.186Z,20.25
2022-08-03T03:33:34.384Z,20.13
2022-08-03T03:36:38.445Z,20.15
2022-08-03T03:39:41.112Z,20.17
2022-08-03T03:42:43.813Z,20.13
2022-08-03T03:45:46.829Z,20.17
2022-08-03T03:48:49.594Z,20.24
2022-08-03T03:51:55.260Z,20.29
2022-08-03T03:55:01.071Z,20.18
2022-08-03T03:58:04.859Z,20.12
2022-08-03T04:01:08.790Z,20.23
2022-08-03T04:04:28.962Z,20.21
2022-08-03T04:08:03.487Z,20.34
2022-08-03T04:11:13.626Z,20.31
2022-08-03T04:14:20.008Z,20.36
2022-08-03T04:17:28.137Z,20.31
2022-08-03T04:20:33.383Z,20.37
2022-08-03T04:23:56.387Z,20.39
2022-08-03T04:27:01.946Z,20.35
2022-08-03T04:30:06.744Z,20.46
2022-08-03T04:33:09.660Z,20.51
2022-08-03T04:36:18.298Z,20.56
2022-08-03T04:39:26.475Z,20.59
2022-08-03T04:42:30.484Z,20.50
2022-08-03T04:45:35.189Z,20.50
2022-08-03T04:48:39.732Z,20.58
2022-08-03T04:51:44.797Z,20.59
2022-08-03T04:54:50.948Z,20.54
2022-08-03T04:57:53.848Z,20.63
2022-08-03T05:00:56.417Z,20.58
2022-08-03T05:03:59.059Z,20.49
2022-08-03T05:07:11.691Z,20.55
2022-08-03T05:10:17.672Z,20.67
2022-08-03T05:13:20.289Z,20.61
2022-08-03T05:16:22.883Z,20.72
2022-08-03T05:19:25.472Z,20.67
2022-08-03T05:22:28.065Z,20.70
2022-08-03T05:25:31.997Z,20.76
2022-08-03T05:28:34.585Z,20.72
2022-08-03T05:31:37.202Z,20.70
2022-08-03T05:34:39.874Z,20.75
2022-08-03T05:37:42.454Z,20.78
2022-08-03T05:41:21.431Z,20.84
2022-08-03T05:44:22.149Z,20.89
2022-08-03T05:47:24.842Z,20.93
2022-08-03T05:50:27.409Z,21.09
2022-08-03T05:53:30.018Z,21.23
2022-08-03T05:56:33.944Z,21.35
2022-08-03T05:59:39.087Z,21.27
2022-08-03T06:02:41.685Z,21.52
2022-08-03T06:05:55.505Z,21.66
2022-08-03T06:09:03.060Z,21.81
2022-08-03T06:12:11.139Z,21.99
2022-08-03T06:15:16.763Z,22.12
2022-08-03T06:18:19.942Z,22.23
2022-08-03T06:21:22.676Z,22.49
2022-08-03T06:24:25.438Z,22.65
2022-08-03T06:27:36.636Z,22.73
2022-08-03T06:30:40.311Z,22.90
2022-08-03T06:34:31.327Z,22.99
2022-08-03T06:37:05.844Z,23.18
2022-08-03T06:40:09.451Z,23.27
2022-08-03T06:43:17.746Z,23.52
2022-08-03T06:46:20.390Z,23.62
2022-08-03T06:49:23.091Z,23.72
2022-08-03T06:52:37.650Z,23.86
2022-08-03T06:55:42.530Z,24.01
2022-08-03T06:58:47.327Z,24.12
2022-08-03T07:01:50.130Z,24.10
2022-08-03T07:04:52.744Z,24.26
2022-08-03T07:07:56.738Z,24.26
2022-08-03T07:10:59.317Z,24.39
2022-08-03T07:14:04.254Z,24.55
2022-08-03T07:17:11.551Z,24.66
2022-08-03T07:20:15.236Z,24.86
2022-08-03T07:23:19.269Z,25.03
2022-08-03T07:26:22.112Z,25.10
2022-08-03T07:29:26.162Z,25.13
2022-08-03T07:32:31.270Z,25.42
2022-08-03T07:35:33.980Z,25.52
2022-08-03T07:38:37.287Z,25.77
2022-08-03T07:41:39.905Z,25.96
2022-08-03T07:44:45.814Z,26.23
2022-08-03T07:47:53.222Z,26.35
2022-08-03T07:50:56.530Z,26.30
2022-08-03T07:54:00.748Z,26.44
2022-08-03T07:57:03.367Z,26.53
2022-08-03T08:00:13.639Z,26.66
2022-08-03T08:03:16.372Z,26.72
2022-08-03T08:06:19.315Z,27.15
2022-08-03T08:09:21.930Z,27.14
2022-08-03T08:12:24.691Z,27.37
2022-08-03T08:15:28.987Z,27.43
2022-08-03T08:18:32.032Z,27.64
2022-08-03T08:21:53.128Z,27.80
2022-08-03T08:24:57.252Z,27.92
2022-08-03T08:28:22.235Z,27.78
2022-08-03T08:31:26.465Z,27.65
2022-08-03T08:34:29.085Z,27.79
2022-08-03T08:37:35.085Z,27.96
2022-08-03T08:40:37.694Z,28.08
2022-08-03T08:43:40.326Z,28.40
2022-08-03T08:46:44.978Z,27.95
2022-08-03T08:50:08.943Z,28.29
2022-08-03T08:53:18.171Z,28.49
2022-08-03T08:56:25.380Z,28.80
2022-08-03T08:59:47.666Z,29.06
2022-08-03T09:02:52.322Z,28.96
2022-08-03T09:05:56.408Z,28.99
2022-08-03T09:08:59.483Z,29.27
2022-08-03T09:12:34.983Z,29.62
2022-08-03T09:15:27.255Z,29.12
2022-08-03T09:18:32.536Z,29.16
2022-08-03T09:21:35.833Z,29.19
2022-08-03T09:24:43.484Z,29.89
2022-08-03T09:27:47.127Z,30.07
2022-08-03T09:30:59.923Z,30.12
2022-08-03T09:34:06.782Z,29.92
2022-08-03T09:37:14.990Z,29.45
2022-08-03T09:40:35.520Z,29.40
2022-08-03T09:43:47.504Z,29.24
2022-08-03T09:46:51.334Z,29.97
2022-08-03T09:50:01.921Z,30.30
2022-08-03T09:53:04.607Z,30.77
2022-08-03T09:56:35.715Z,30.65
2022-08-03T09:59:31.760Z,31.02
2022-08-03T10:02:34.453Z,30.74
2022-08-03T10:05:44.494Z,31.06
2022-08-03T10:08:47.116Z,31.12
2022-08-03T10:11:50.118Z,31.54
2022-08-03T10:14:54.135Z,31.84
2022-08-03T10:17:56.729Z,31.48
2022-08-03T10:21:05.784Z,30.62
2022-08-03T10:24:11.087Z,31.00
2022-08-03T10:27:15.968Z,31.24
2022-08-03T10:30:18.639Z,32.04
2022-08-03T10:33:50.668Z,33.05
2022-08-03T10:36:50.094Z,32.23
2022-08-03T10:39:56.431Z,32.57
2022-08-03T10:43:08.918Z,33.08
2022-08-03T10:46:11.524Z,33.51
2022-08-03T10:49:15.750Z,33.38
2022-08-03T10:52:31.878Z,33.09
2022-08-03T10:55:56.910Z,34.06
2022-08-03T10:59:03.826Z,33.88
2022-08-03T11:02:08.300Z,33.46
2022-08-03T11:05:26.573Z,33.37
2022-08-03T11:08:34.641Z,33.66
2022-08-03T11:11:37.573Z,34.25
2022-08-03T11:14:49.159Z,34.71
2022-08-03T11:18:11.209Z,35.34
2022-08-03T11:21:14.624Z,35.51
2022-08-03T11:24:54.172Z,34.86
2022-08-03T11:28:28.922Z,35.23
2022-08-03T11:31:50.154Z,36.08
2022-08-03T11:35:08.871Z,36.20
2022-08-03T11:38:12.911Z,35.60
2022-08-03T11:41:43.339Z,35.51
2022-08-03T11:44:50.521Z,35.52
2022-08-03T11:47:55.829Z,35.77
2022-08-03T11:50:58.449Z,36.17
2022-08-03T11:54:03.029Z,36.65
2022-08-03T11:57:05.947Z,36.80
2022-08-03T12:00:37.241Z,37.17
2022-08-03T12:03:39.964Z,36.11
2022-08-03T12:06:55.445Z,35.24
2022-08-03T12:10:08.691Z,35.94
2022-08-03T12:14:45.213Z,35.66
2022-08-03T12:16:35.620Z,36.16
2022-08-03T12:19:43.440Z,36.45
2022-08-03T12:22:46.139Z,36.91
2022-08-03T12:25:49.519Z,36.91
2022-08-03T12:28:52.930Z,37.37
2022-08-03T12:31:57.682Z,37.25
2022-08-03T12:35:04.306Z,37.08
2022-08-03T12:38:07.229Z,37.51
2022-08-03T12:41:13.498Z,35.99
2022-08-03T12:44:16.715Z,36.14
2022-08-03T12:47:20.857Z,35.85
2022-08-03T12:50:29.229Z,36.82
2022-08-03T12:53:31.853Z,36.70
2022-08-03T12:56:35.425Z,37.04
2022-08-03T12:59:42.419Z,37.12
2022-08-03T13:03:38.205Z,36.95
2022-08-03T13:06:26.733Z,35.88
2022-08-03T13:09:29.979Z,36.48
2022-08-03T13:12:32.566Z,36.62
2022-08-03T13:15:38.729Z,36.89
2022-08-03T13:18:53.252Z,36.93
2022-08-03T13:22:04.106Z,37.24
2022-08-03T13:25:08.437Z,36.87
2022-08-03T13:28:14.140Z,36.80
2022-08-03T13:31:17.226Z,36.86
2022-08-03T13:34:23.868Z,36.73
2022-08-03T13:37:27.559Z,36.90
2022-08-03T13:40:35.576Z,36.77
2022-08-03T13:43:44.162Z,36.88
2022-08-03T13:46:46.963Z,36.43
2022-08-03T13:50:00.002Z,36.03
2022-08-03T13:53:04.661Z,36.25
2022-08-03T13:56:07.274Z,36.52
2022-08-03T13:59:10.995Z,36.53
2022-08-03T14:02:13.649Z,36.60
2022-08-03T14:05:17.602Z,36.22
2022-08-03T14:08:20.132Z,36.19
2022-08-03T14:11:22.761Z,36.49
2022-08-03T14:14:25.343Z,36.48
2022-08-03T14:17:42.414Z,36.36
2022-08-03T14:20:56.168Z,36.28
2022-08-03T14:23:59.925Z,35.79
2022-08-03T14:27:09.052Z,35.59
2022-08-03T14:30:13.214Z,35.43
2022-08-03T14:33:16.418Z,35.40
2022-08-03T14:36:20.400Z,34.88
2022-08-03T14:39:23.084Z,34.78
2022-08-03T14:42:25.746Z,34.39
2022-08-03T14:45:28.367Z,34.04
2022-08-03T14:50:31.051Z,33.96
2022-08-03T14:51:54.982Z,33.72
2022-08-03T14:54:57.916Z,33.85
2022-08-03T14:58:05.400Z,33.74
2022-08-03T15:02:03.167Z,33.67
2022-08-03T15:04:44.770Z,33.36
2022-08-03T15:07:48.658Z,33.27
2022-08-03T15:10:51.622Z,33.26
2022-08-03T15:13:54.247Z,33.00
2022-08-03T15:16:56.831Z,32.85
2022-08-03T15:20:18.974Z,32.86
2022-08-03T15:23:23.396Z,32.80
2022-08-03T15:26:32.838Z,32.69
2022-08-03T15:30:07.398Z,32.54
2022-08-03T15:32:59.226Z,32.55
2022-08-03T15:36:01.785Z,32.62
2022-08-03T15:39:06.121Z,32.53
2022-08-03T15:42:08.880Z,32.38
2022-08-03T15:45:12.752Z,32.34
2022-08-03T15:48:15.571Z,32.30
2022-08-03T15:51:18.171Z,32.29
2022-08-03T15:54:22.100Z,32.32
2022-08-03T15:57:24.704Z,32.21
2022-08-03T16:00:33.303Z,32.09
2022-08-03T16:03:36.576Z,31.86
2022-08-03T16:06:39.410Z,31.79
2022-08-03T16:09:44.012Z,31.73
2022-08-03T16:12:47.590Z,31.61
2022-08-03T16:15:50.214Z,31.72
2022-08-03T16:18:53.046Z,31.47
2022-08-03T16:21:55.604Z,31.35
2022-08-03T16:25:02.249Z,31.18
2022-08-03T16:28:08.279Z,31.19
2022-08-03T16:31:15.302Z,31.17
2022-08-03T16:34:19.095Z,31.26
2022-08-03T16:37:38.103Z,31.21
2022-08-03T16:40:43.448Z,31.04
2022-08-03T16:43:46.050Z,30.97
2022-08-03T16:46:48.651Z,31.03
2022-08-03T16:49:53.820Z,31.00
2022-08-03T16:52:59.010Z,31.09
2022-08-03T16:56:06.711Z,31.11
2022-08-03T16:59:12.677Z,31.18
2022-08-03T17:02:21.878Z,31.27
2022-08-03T17:05:32.697Z,31.11
2022-08-03T17:08:55.174Z,31.00
2022-08-03T17:11:59.545Z,30.90
2022-08-03T17:15:02.949Z,30.78
2022-08-03T17:18:09.785Z,30.73
2022-08-03T17:21:12.824Z,30.67
2022-08-03T17:24:26.340Z,30.66
2022-08-03T17:28:48.358Z,30.63
2022-08-03T17:31:23.366Z,30.58
2022-08-03T17:34:35.051Z,30.58
2022-08-03T17:37:58.538Z,30.51
2022-08-03T17:41:11.033Z,30.36
2022-08-03T17:44:33.140Z,30.27
2022-08-03T17:47:41.257Z,30.14
2022-08-03T17:50:54.201Z,30.04
2022-08-03T17:54:05.321Z,29.88
2022-08-03T17:57:30.197Z,29.79
2022-08-03T18:01:59.587Z,29.69
2022-08-03T18:04:43.786Z,29.60
2022-08-03T18:08:02.641Z,29.55
2022-08-03T18:11:14.504Z,29.38
2022-08-03T18:14:39.119Z,29.29
2022-08-03T18:17:55.479Z,29.19
2022-08-03T18:21:09.409Z,29.11
2022-08-03T18:24:20.604Z,29.00
2022-08-03T18:27:42.848Z,28.93
2022-08-03T18:30:53.143Z,28.77
2022-08-03T18:34:32.133Z,28.65
2022-08-03T18:37:25.344Z,28.58
2022-08-03T18:40:28.432Z,28.54
2022-08-03T18:43:47.609Z,28.47
2022-08-03T18:47:15.811Z,28.36
2022-08-03T18:50:29.296Z,28.22
2022-08-03T18:54:03.123Z,28.16
2022-08-03T18:57:06.559Z,28.03
2022-08-03T19:03:42.911Z,27.80
2022-08-03T19:06:49.749Z,27.60
2022-08-03T19:10:03.784Z,27.63
2022-08-03T19:13:14.096Z,27.43
2022-08-03T19:16:22.642Z,27.38
2022-08-03T19:19:43.647Z,27.26
2022-08-03T19:22:49.223Z,27.20
2022-08-03T19:25:52.685Z,27.01
2022-08-03T19:28:58.022Z,26.90
2022-08-03T19:32:02.742Z,26.88
2022-08-03T19:35:13.341Z,26.77
2022-08-03T19:38:28.755Z,26.62
2022-08-03T19:41:42.075Z,26.52
2022-08-03T19:44:50.829Z,26.46
2022-08-03T19:48:09.470Z,26.30
2022-08-03T19:51:12.787Z,26.27
2022-08-03T19:54:17.122Z,26.18
2022-08-03T19:57:34.498Z,26.23
2022-08-03T20:00:39.576Z,26.08
2022-08-03T20:03:52.941Z,26.08
2022-08-03T20:06:58.563Z,26.18
2022-08-03T20:10:05.193Z,26.11
2022-08-03T20:13:08.405Z,25.82
2022-08-03T20:16:11.192Z,25.69
2022-08-03T20:19:14.463Z,25.49
2022-08-03T20:22:17.413Z,25.64
2022-08-03T20:25:38.468Z,25.37
2022-08-03T20:28:50.060Z,25.28
2022-08-03T20:31:53.388Z,25.28
2022-08-03T20:34:58.796Z,25.34
2022-08-03T20:38:01.365Z,25.21
2022-08-03T20:41:06.215Z,25.24
2022-08-03T20:44:08.833Z,25.20
2022-08-03T20:47:11.930Z,24.96
2022-08-03T20:50:26.989Z,24.97
2022-08-03T20:53:57.304Z,24.97
2022-08-03T20:56:54.243Z,24.96
2022-08-03T20:59:56.817Z,25.02
2022-08-03T21:02:59.818Z,25.22
2022-08-03T21:06:07.082Z,25.11
2022-08-03T21:09:18.180Z,24.96
2022-08-03T21:12:29.635Z,24.85
2022-08-03T21:13:09.723Z,27.87
2022-08-03T21:16:02.466Z,24.94
2022-08-03T21:19:00.754Z,24.99
2022-08-03T21:22:05.350Z,24.87
2022-08-03T21:25:09.800Z,24.80
2022-08-03T21:28:14.202Z,24.82
2022-08-03T21:31:27.606Z,24.73
2022-08-03T21:34:31.170Z,24.76
2022-08-03T21:37:34.228Z,24.69
2022-08-03T21:40:37.421Z,24.61
2022-08-03T21:43:41.415Z,24.53
2022-08-03T21:46:46.325Z,24.54
2022-08-03T21:50:07.872Z,24.73
2022-08-03T21:53:13.092Z,24.65
2022-08-03T21:56:20.914Z,24.51
2022-08-03T21:59:26.689Z,24.55
2022-08-03T22:02:32.355Z,24.43
2022-08-03T22:05:44.047Z,24.35
2022-08-03T22:08:47.308Z,24.48
2022-08-03T22:11:53.976Z,24.42
2022-08-03T22:15:00.410Z,24.32
2022-08-03T22:18:05.206Z,24.40
2022-08-03T22:21:11.785Z,24.36
2022-08-03T22:24:16.808Z,24.35
2022-08-03T22:27:32.479Z,24.34
2022-08-03T22:30:37.036Z,24.54
2022-08-03T22:33:40.630Z,24.44
2022-08-03T22:36:43.712Z,24.37
2022-08-03T22:39:46.839Z,24.36
2022-08-03T22:42:52.133Z,24.23
2022-08-03T22:46:11.223Z,24.13
2022-08-03T22:49:16.186Z,24.24
2022-08-03T22:52:19.270Z,24.20
2022-08-03T22:55:24.841Z,23.97
2022-08-03T22:58:27.765Z,24.02
2022-08-03T23:01:38.006Z,23.85
2022-08-03T23:04:42.546Z,23.78
2022-08-03T23:07:46.470Z,23.80
2022-08-03T23:10:49.870Z,23.70
2022-08-03T23:13:54.778Z,23.89
2022-08-03T23:17:03.846Z,23.64
2022-08-03T23:20:09.108Z,23.50
2022-08-03T23:23:12.105Z,23.31
2022-08-03T23:26:17.123Z,23.38
2022-08-03T23:29:21.364Z,23.55
2022-08-03T23:32:26.690Z,23.35
2022-08-03T23:36:17.300Z,23.32
2022-08-03T23:39:10.141Z,23.40
2022-08-03T23:42:14.401Z,23.46
2022-08-03T23:45:19.343Z,23.47
2022-08-03T23:48:23.436Z,23.31
2022-08-03T23:51:37.690Z,23.12
2022-08-03T23:54:52.287Z,23.18
2022-08-03T23:58:04.589Z,23.12
